createdAt,value
2017-12-03T00:01:36.834Z,101894.88
2017-12-03T00:04:04.352Z,101893.62
2017-12-03T00:06:31.904Z,101889.66
2017-12-03T00:08:59.547Z,101892.02
2017-12-03T00:11:27.067Z,101888.27
2017-12-03T00:13:54.592Z,101886.52
2017-12-03T00:16:22.168Z,101884.65
2017-12-03T00:18:49.717Z,101883.78
2017-12-03T00:21:17.231Z,101874.84
2017-12-03T00:23:44.875Z,101882.97
2017-12-03T00:26:12.391Z,101873.61
2017-12-03T00:28:39.917Z,101872.00
2017-12-03T00:31:07.510Z,101866.95
2017-12-03T00:33:35.027Z,101866.31
2017-12-03T00:36:02.555Z,101870.80
2017-12-03T00:38:30.209Z,101860.13
2017-12-03T00:40:57.736Z,101866.62
2017-12-03T00:43:25.272Z,101862.88
2017-12-03T00:45:52.821Z,101866.02
2017-12-03T00:48:20.340Z,101863.16
2017-12-03T00:50:47.992Z,101862.73
2017-12-03T00:53:15.512Z,101862.87
2017-12-03T00:55:43.050Z,101860.89
2017-12-03T00:58:10.709Z,101848.98
2017-12-03T01:00:38.252Z,101857.66
2017-12-03T01:03:05.777Z,101851.77
2017-12-03T01:05:33.353Z,101840.63
2017-12-03T01:08:00.884Z,101835.86
2017-12-03T01:10:28.634Z,101833.39
2017-12-03T01:12:56.215Z,101834.80
2017-12-03T01:15:23.773Z,101831.83
2017-12-03T01:17:51.313Z,101829.63
2017-12-03T01:20:18.997Z,101822.06
2017-12-03T01:22:46.549Z,101812.27
2017-12-03T01:25:14.101Z,101812.75
2017-12-03T01:27:41.675Z,101812.53
2017-12-03T01:30:09.199Z,101810.23
2017-12-03T01:32:36.720Z,101810.66
2017-12-03T01:35:04.280Z,101809.11
2017-12-03T01:37:31.790Z,101808.33
2017-12-03T01:39:59.313Z,101812.59
2017-12-03T01:42:26.865Z,101805.20
2017-12-03T01:44:54.380Z,101803.96
2017-12-03T01:47:22.045Z,101800.97
2017-12-03T01:49:49.577Z,101801.85
2017-12-03T01:52:17.108Z,101804.52
2017-12-03T01:54:44.662Z,101802.81
2017-12-03T01:57:12.213Z,101797.13
2017-12-03T01:59:39.732Z,101798.99
2017-12-03T02:02:07.398Z,101790.98
2017-12-03T02:04:34.929Z,101805.70
2017-12-03T02:07:02.499Z,101798.91
2017-12-03T02:09:30.085Z,101798.39
2017-12-03T02:11:57.629Z,101789.96
2017-12-03T02:14:25.208Z,101784.70
2017-12-03T02:16:52.762Z,101789.34
2017-12-03T02:19:20.365Z,101785.02
2017-12-03T02:21:47.941Z,101797.52
2017-12-03T02:24:15.480Z,101791.76
2017-12-03T02:26:43.034Z,101788.12
2017-12-03T02:29:10.560Z,101784.97
2017-12-03T02:31:38.222Z,101782.80
2017-12-03T02:34:05.753Z,101786.21
2017-12-03T02:36:33.290Z,101779.34
2017-12-03T02:39:00.847Z,101782.78
2017-12-03T02:41:28.385Z,101773.37
2017-12-03T02:43:56.002Z,101771.87
2017-12-03T02:46:23.544Z,101768.83
2017-12-03T02:48:51.074Z,101769.59
2017-12-03T02:51:18.742Z,101772.65
2017-12-03T02:53:46.278Z,101763.79
2017-12-03T02:56:13.830Z,101762.03
2017-12-03T02:58:41.433Z,101768.05
2017-12-03T03:01:08.973Z,101775.19
2017-12-03T03:03:36.514Z,101761.26
2017-12-03T03:06:04.104Z,101770.23
2017-12-03T03:08:31.678Z,101760.47
2017-12-03T03:10:59.207Z,101763.52
2017-12-03T03:13:26.781Z,101763.17
2017-12-03T03:15:54.332Z,101761.14
2017-12-03T03:18:21.871Z,101762.10
2017-12-03T03:20:49.432Z,101755.36
2017-12-03T03:23:17.000Z,101760.39
2017-12-03T03:25:44.579Z,101747.83
2017-12-03T03:28:12.237Z,101750.30
2017-12-03T03:30:39.760Z,101750.31
2017-12-03T03:33:07.284Z,101748.05
2017-12-03T03:35:34.977Z,101743.64
2017-12-03T03:38:02.525Z,101744.20
2017-12-03T03:40:30.087Z,101740.08
2017-12-03T03:42:57.685Z,101736.89
2017-12-03T03:45:25.226Z,101739.66
2017-12-03T03:47:52.755Z,101737.73
2017-12-03T03:50:20.467Z,101735.09
2017-12-03T03:52:47.989Z,101738.72
2017-12-03T03:55:15.528Z,101735.28
2017-12-03T03:57:43.182Z,101735.15
2017-12-03T04:00:10.720Z,101730.05
2017-12-03T04:02:38.274Z,101723.53
2017-12-03T04:05:05.958Z,101727.23
2017-12-03T04:07:33.488Z,101719.45
2017-12-03T04:10:01.013Z,101721.26
2017-12-03T04:12:28.788Z,101717.05
2017-12-03T04:14:56.365Z,101715.50
2017-12-03T04:17:23.893Z,101718.20
2017-12-03T04:19:51.460Z,101719.34
2017-12-03T04:22:19.004Z,101713.62
2017-12-03T04:24:46.549Z,101709.03
2017-12-03T04:27:14.117Z,101700.86
2017-12-03T04:29:41.805Z,101701.37
2017-12-03T04:32:09.364Z,101699.94
2017-12-03T04:34:36.916Z,101698.16
2017-12-03T04:37:04.616Z,101697.52
2017-12-03T04:39:32.175Z,101691.27
2017-12-03T04:41:59.762Z,101697.92
2017-12-03T04:44:27.390Z,101697.77
2017-12-03T04:46:54.956Z,101694.56
2017-12-03T04:49:22.514Z,101697.27
2017-12-03T04:51:50.071Z,101686.72
2017-12-03T04:54:17.642Z,101682.77
2017-12-03T04:56:45.215Z,101684.78
2017-12-03T04:59:12.790Z,101688.72
2017-12-03T05:01:40.312Z,101686.34
2017-12-03T05:04:07.888Z,101694.86
2017-12-03T05:06:35.438Z,101693.54
2017-12-03T05:09:03.042Z,101692.38
2017-12-03T05:11:30.608Z,101691.64
2017-12-03T05:13:58.182Z,101694.45
2017-12-03T05:16:25.852Z,101686.08
2017-12-03T05:18:53.398Z,101693.21
2017-12-03T05:21:20.919Z,101682.20
2017-12-03T05:23:48.524Z,101690.94
2017-12-03T05:26:16.071Z,101689.46
2017-12-03T05:28:43.629Z,101688.48
2017-12-03T05:31:11.201Z,101686.00
2017-12-03T05:33:38.741Z,101677.28
2017-12-03T05:36:06.385Z,101685.90
2017-12-03T05:38:33.892Z,101676.95
2017-12-03T05:41:01.433Z,101681.53
2017-12-03T05:43:29.004Z,101678.40
2017-12-03T05:45:56.598Z,101679.63
2017-12-03T05:48:24.152Z,101678.91
2017-12-03T05:50:51.697Z,101673.26
2017-12-03T05:53:19.260Z,101673.55
2017-12-03T05:55:46.779Z,101674.56
2017-12-03T05:58:14.328Z,101670.84
2017-12-03T06:00:41.861Z,101670.16
2017-12-03T06:03:09.550Z,101670.32
2017-12-03T06:05:37.085Z,101664.83
2017-12-03T06:08:04.624Z,101662.12
2017-12-03T06:10:32.294Z,101665.23
2017-12-03T06:12:59.933Z,101667.95
2017-12-03T06:15:27.477Z,101657.57
2017-12-03T06:17:55.245Z,101665.73
2017-12-03T06:20:22.791Z,101664.55
2017-12-03T06:22:50.322Z,101661.88
2017-12-03T06:25:17.982Z,101669.08
2017-12-03T06:27:45.511Z,101659.09
2017-12-03T06:30:13.056Z,101669.91
2017-12-03T06:32:40.600Z,101670.73
2017-12-03T06:35:08.149Z,101670.93
2017-12-03T06:37:35.753Z,101676.55
2017-12-03T06:40:03.285Z,101678.41
2017-12-03T06:42:30.834Z,101671.55
2017-12-03T06:44:58.390Z,101669.84
2017-12-03T06:47:25.971Z,101668.66
2017-12-03T06:49:53.518Z,101662.93
2017-12-03T06:52:21.070Z,101657.99
2017-12-03T06:54:48.619Z,101660.12
2017-12-03T06:57:16.306Z,101656.89
2017-12-03T06:59:43.853Z,101650.14
2017-12-03T07:02:11.409Z,101659.52
2017-12-03T07:04:39.080Z,101654.48
2017-12-03T07:07:06.637Z,101660.50
2017-12-03T07:09:34.200Z,101663.02
2017-12-03T07:12:01.809Z,101658.79
2017-12-03T07:14:29.357Z,101656.80
2017-12-03T07:16:56.899Z,101662.92
2017-12-03T07:19:24.571Z,101661.51
2017-12-03T07:21:52.117Z,101664.70
2017-12-03T07:24:19.651Z,101670.02
2017-12-03T07:26:47.222Z,101663.23
2017-12-03T07:29:14.809Z,101665.45
2017-12-03T07:31:42.377Z,101659.80
2017-12-03T07:34:09.957Z,101668.66
2017-12-03T07:36:37.488Z,101665.43
2017-12-03T07:39:05.080Z,101663.63
2017-12-03T07:41:32.616Z,101667.76
2017-12-03T07:44:00.185Z,101662.22
2017-12-03T07:46:27.877Z,101663.11
2017-12-03T07:48:55.422Z,101665.83
2017-12-03T07:51:23.901Z,101662.42
2017-12-03T07:53:51.457Z,101668.86
2017-12-03T07:56:19.008Z,101668.16
2017-12-03T07:58:46.570Z,101673.80
2017-12-03T08:01:14.163Z,101665.23
2017-12-03T08:03:41.772Z,101662.72
2017-12-03T08:06:09.300Z,101667.75
2017-12-03T08:08:36.876Z,101665.13
2017-12-03T08:11:04.489Z,101666.94
2017-12-03T08:13:32.020Z,101672.95
2017-12-03T08:15:59.564Z,101662.06
2017-12-03T08:18:27.133Z,101670.63
2017-12-03T08:20:54.663Z,101661.30
2017-12-03T08:23:22.216Z,101664.11
2017-12-03T08:25:49.830Z,101661.59
2017-12-03T08:28:17.377Z,101666.41
2017-12-03T08:30:44.921Z,101665.50
2017-12-03T08:33:12.505Z,101663.10
2017-12-03T08:35:40.088Z,101666.78
2017-12-03T08:38:07.676Z,101660.20
2017-12-03T08:40:35.218Z,101667.66
2017-12-03T08:43:02.759Z,101670.05
2017-12-03T08:45:30.344Z,101669.21
2017-12-03T08:47:57.929Z,101675.99
2017-12-03T08:50:25.472Z,101670.09
2017-12-03T08:52:53.069Z,101667.37
2017-12-03T08:55:20.608Z,101669.41
2017-12-03T08:57:48.157Z,101662.75
2017-12-03T09:00:15.781Z,101655.57
2017-12-03T09:02:43.330Z,101666.23
2017-12-03T09:05:10.889Z,101669.12
2017-12-03T09:07:38.473Z,101665.20
2017-12-03T09:10:06.798Z,101669.38
2017-12-03T09:12:34.551Z,101671.34
2017-12-03T09:15:02.238Z,101675.54
2017-12-03T09:17:29.830Z,101670.44
2017-12-03T09:19:57.385Z,101667.91
2017-12-03T09:22:24.965Z,101667.95
2017-12-03T09:24:52.596Z,101675.52
2017-12-03T09:27:20.219Z,101668.13
2017-12-03T09:29:47.766Z,101666.50
2017-12-03T09:32:15.362Z,101661.66
2017-12-03T09:34:43.013Z,101663.41
2017-12-03T09:37:10.618Z,101667.09
2017-12-03T09:39:38.157Z,101665.41
2017-12-03T09:42:05.685Z,101665.59
2017-12-03T09:44:33.286Z,101658.92
2017-12-03T09:47:00.820Z,101668.02
2017-12-03T09:49:28.390Z,101663.09
2017-12-03T09:51:55.956Z,101659.95
2017-12-03T09:54:23.492Z,101660.23
2017-12-03T09:56:51.211Z,101671.84
2017-12-03T09:59:18.757Z,101667.80
2017-12-03T10:01:46.293Z,101668.83
2017-12-03T10:04:13.905Z,101676.52
2017-12-03T10:06:41.457Z,101669.86
2017-12-03T10:09:09.016Z,101667.41
2017-12-03T10:11:36.763Z,101663.46
2017-12-03T10:14:04.420Z,101658.92
2017-12-03T10:16:32.092Z,101654.50
2017-12-03T10:18:59.659Z,101646.12
2017-12-03T10:21:27.203Z,101649.18
2017-12-03T10:23:54.759Z,101646.19
2017-12-03T10:26:22.376Z,101643.99
2017-12-03T10:28:49.925Z,101650.94
2017-12-03T10:31:17.540Z,101637.67
2017-12-03T10:33:45.156Z,101645.37
2017-12-03T10:36:12.696Z,101633.91
2017-12-03T10:38:40.277Z,101635.45
2017-12-03T10:41:07.846Z,101637.84
2017-12-03T10:43:35.396Z,101624.23
2017-12-03T10:46:02.921Z,101626.33
2017-12-03T10:48:30.461Z,101623.22
2017-12-03T10:50:58.037Z,101617.55
2017-12-03T10:53:25.561Z,101620.69
2017-12-03T10:55:53.126Z,101621.39
2017-12-03T10:58:20.649Z,101614.97
2017-12-03T11:00:48.193Z,101620.34
2017-12-03T11:03:15.797Z,101622.84
2017-12-03T11:05:43.351Z,101618.89
2017-12-03T11:08:10.904Z,101620.45
2017-12-03T11:10:38.458Z,101613.42
2017-12-03T11:13:05.978Z,101610.36
2017-12-03T11:15:33.589Z,101613.73
2017-12-03T11:18:01.120Z,101611.30
2017-12-03T11:20:28.684Z,101607.63
2017-12-03T11:22:56.365Z,101614.28
2017-12-03T11:25:23.876Z,101618.03
2017-12-03T11:27:51.416Z,101618.90
2017-12-03T11:30:18.979Z,101623.22
2017-12-03T11:32:46.544Z,101618.48
2017-12-03T11:35:14.068Z,101611.75
2017-12-03T11:37:41.603Z,101618.11
2017-12-03T11:40:09.151Z,101620.16
2017-12-03T11:42:36.731Z,101617.03
2017-12-03T11:45:04.252Z,101608.02
2017-12-03T11:47:31.767Z,101606.83
2017-12-03T11:49:59.328Z,101611.94
2017-12-03T11:52:26.856Z,101611.49
2017-12-03T11:54:54.388Z,101608.61
2017-12-03T11:57:21.942Z,101604.62
2017-12-03T11:59:49.488Z,101600.70
2017-12-03T12:02:17.013Z,101604.03
2017-12-03T12:04:44.719Z,101603.14
2017-12-03T12:07:12.240Z,101596.41
2017-12-03T12:09:39.766Z,101600.77
2017-12-03T12:12:07.316Z,101601.19
2017-12-03T12:14:34.856Z,101600.52
2017-12-03T12:17:02.424Z,101591.61
2017-12-03T12:19:29.944Z,101593.61
2017-12-03T12:21:57.464Z,101596.05
2017-12-03T12:24:25.197Z,101591.12
2017-12-03T12:26:52.732Z,101587.59
2017-12-03T12:29:20.295Z,101585.36
2017-12-03T12:31:47.873Z,101586.66
2017-12-03T12:34:15.434Z,101585.09
2017-12-03T12:36:43.023Z,101581.98
2017-12-03T12:39:10.638Z,101585.05
2017-12-03T12:41:38.164Z,101590.23
2017-12-03T12:44:05.712Z,101586.14
2017-12-03T12:46:33.252Z,101579.36
2017-12-03T12:49:01.009Z,101586.73
2017-12-03T12:51:28.595Z,101579.74
2017-12-03T12:53:56.152Z,101584.81
2017-12-03T12:56:23.825Z,101578.17
2017-12-03T12:58:51.381Z,101568.84
2017-12-03T13:01:18.924Z,101572.45
2017-12-03T13:03:46.501Z,101574.98
2017-12-03T13:06:14.021Z,101576.94
2017-12-03T13:08:41.532Z,101571.57
2017-12-03T13:11:09.111Z,101571.56
2017-12-03T13:13:36.660Z,101569.41
2017-12-03T13:16:04.191Z,101578.42
2017-12-03T13:18:31.812Z,101576.05
2017-12-03T13:20:59.352Z,101584.33
2017-12-03T13:23:26.943Z,101579.48
2017-12-03T13:25:54.474Z,101573.91
2017-12-03T13:28:21.996Z,101583.23
2017-12-03T13:30:49.777Z,101586.12
2017-12-03T13:33:17.301Z,101588.66
2017-12-03T13:35:44.842Z,101584.72
2017-12-03T13:38:12.387Z,101583.03
2017-12-03T13:40:40.082Z,101597.78
2017-12-03T13:43:07.624Z,101594.91
2017-12-03T13:45:35.153Z,101591.16
2017-12-03T13:48:02.894Z,101594.07
2017-12-03T13:50:30.417Z,101582.06
2017-12-03T13:52:57.969Z,101582.14
2017-12-03T13:55:25.508Z,101588.96
2017-12-03T13:57:53.029Z,101583.69
2017-12-03T14:00:20.584Z,101578.27
2017-12-03T14:02:48.163Z,101576.96
2017-12-03T14:05:15.694Z,101578.00
2017-12-03T14:07:43.256Z,101580.77
2017-12-03T14:10:10.834Z,101584.03
2017-12-03T14:12:38.388Z,101582.00
2017-12-03T14:15:06.010Z,101580.70
2017-12-03T14:17:33.553Z,101589.73
2017-12-03T14:20:01.237Z,101592.47
2017-12-03T14:22:28.760Z,101596.36
2017-12-03T14:24:56.309Z,101592.75
2017-12-03T14:27:23.866Z,101586.55
2017-12-03T14:29:51.407Z,101588.37
2017-12-03T14:32:18.981Z,101594.38
2017-12-03T14:34:46.520Z,101599.56
2017-12-03T14:37:14.035Z,101598.08
2017-12-03T14:39:41.590Z,101607.16
2017-12-03T14:42:09.167Z,101605.95
2017-12-03T14:44:36.821Z,101605.66
2017-12-03T14:47:04.417Z,101602.56
2017-12-03T14:49:31.957Z,101600.84
2017-12-03T14:51:59.539Z,101595.47
2017-12-03T14:54:27.069Z,101600.48
2017-12-03T14:56:54.599Z,101599.54
2017-12-03T14:59:22.148Z,101601.28
2017-12-03T15:01:49.668Z,101607.18
2017-12-03T15:04:17.453Z,101610.86
2017-12-03T15:06:44.988Z,101620.80
2017-12-03T15:09:12.532Z,101615.66
2017-12-03T15:11:40.127Z,101619.67
2017-12-03T15:14:07.664Z,101632.48
2017-12-03T15:16:35.246Z,101632.15
2017-12-03T15:19:02.832Z,101629.64
2017-12-03T15:21:30.385Z,101631.06
2017-12-03T15:23:57.924Z,101633.14
2017-12-03T15:26:25.497Z,101627.00
2017-12-03T15:28:53.117Z,101627.52
2017-12-03T15:31:20.672Z,101638.25
2017-12-03T15:33:48.270Z,101638.62
2017-12-03T15:36:15.832Z,101643.25
2017-12-03T15:38:43.428Z,101641.25
2017-12-03T15:41:11.029Z,101647.85
2017-12-03T15:43:38.640Z,101642.95
2017-12-03T15:46:06.222Z,101646.52
2017-12-03T15:48:33.788Z,101644.07
2017-12-03T15:51:01.367Z,101648.82
2017-12-03T15:53:28.996Z,101653.39
2017-12-03T15:55:56.789Z,101660.73
2017-12-03T15:58:24.327Z,101653.49
2017-12-03T16:00:51.864Z,101647.80
2017-12-03T16:03:19.439Z,101658.09
2017-12-03T16:05:47.024Z,101661.66
2017-12-03T16:08:14.580Z,101656.73
2017-12-03T16:10:42.381Z,101655.23
2017-12-03T16:13:09.910Z,101665.84
2017-12-03T16:15:37.457Z,101664.11
2017-12-03T16:18:05.030Z,101662.77
2017-12-03T16:20:32.583Z,101661.91
2017-12-03T16:23:00.512Z,101664.42
2017-12-03T16:25:28.113Z,101676.29
2017-12-03T16:27:55.646Z,101681.34
2017-12-03T16:30:23.212Z,101682.11
2017-12-03T16:32:50.809Z,101672.67
2017-12-03T16:35:18.353Z,101679.19
2017-12-03T16:37:45.885Z,101675.42
2017-12-03T16:40:13.476Z,101676.17
2017-12-03T16:42:41.073Z,101682.70
2017-12-03T16:45:08.608Z,101685.55
2017-12-03T16:47:36.137Z,101690.39
2017-12-03T16:50:04.619Z,101689.84
2017-12-03T16:52:32.169Z,101688.43
2017-12-03T16:54:59.713Z,101691.83
2017-12-03T16:57:27.321Z,101689.49
2017-12-03T16:59:54.874Z,101694.39
2017-12-03T17:02:22.421Z,101692.44
2017-12-03T17:04:50.173Z,101703.91
2017-12-03T17:07:17.698Z,101702.03
2017-12-03T17:09:45.236Z,101704.13
2017-12-03T17:12:12.812Z,101694.13
2017-12-03T17:14:40.557Z,101693.05
2017-12-03T17:17:08.088Z,101696.89
2017-12-03T17:19:35.637Z,101693.28
2017-12-03T17:22:03.240Z,101697.98
2017-12-03T17:24:30.776Z,101703.02
2017-12-03T17:26:58.356Z,101705.34
2017-12-03T17:29:25.973Z,101711.36
2017-12-03T17:31:53.500Z,101709.64
2017-12-03T17:34:21.030Z,101706.80
2017-12-03T17:36:48.731Z,101705.94
2017-12-03T17:39:16.262Z,101721.72
2017-12-03T17:41:43.797Z,101724.97
2017-12-03T17:44:11.383Z,101720.74
2017-12-03T17:46:38.917Z,101722.83
2017-12-03T17:49:06.457Z,101714.52
2017-12-03T17:51:34.009Z,101709.95
2017-12-03T17:54:01.532Z,101716.56
2017-12-03T17:56:29.085Z,101712.50
2017-12-03T17:58:56.656Z,101714.33
2017-12-03T18:01:24.194Z,101715.48
2017-12-03T18:03:51.745Z,101717.53
2017-12-03T18:06:19.343Z,101717.39
2017-12-03T18:08:46.868Z,101728.59
2017-12-03T18:11:14.407Z,101725.80
2017-12-03T18:13:41.960Z,101726.11
2017-12-03T18:16:09.489Z,101726.21
2017-12-03T18:18:37.260Z,101735.26
2017-12-03T18:21:04.813Z,101730.86
2017-12-03T18:23:32.431Z,101740.25
2017-12-03T18:25:59.972Z,101749.14
2017-12-03T18:28:27.561Z,101747.14
2017-12-03T18:30:55.097Z,101744.78
2017-12-03T18:33:22.620Z,101745.52
2017-12-03T18:35:50.192Z,101756.16
2017-12-03T18:38:17.745Z,101753.14
2017-12-03T18:40:45.334Z,101757.94
2017-12-03T18:43:13.028Z,101761.59
2017-12-03T18:45:40.589Z,101758.00
2017-12-03T18:48:08.140Z,101763.50
2017-12-03T18:50:35.759Z,101758.83
2017-12-03T18:53:03.333Z,101765.08
2017-12-03T18:55:30.880Z,101764.36
2017-12-03T18:57:58.560Z,101767.05
2017-12-03T19:00:26.130Z,101769.81
2017-12-03T19:02:53.701Z,101769.84
2017-12-03T19:05:21.312Z,101767.70
2017-12-03T19:07:48.853Z,101769.62
2017-12-03T19:10:16.410Z,101772.61
2017-12-03T19:12:43.996Z,101763.16
2017-12-03T19:15:11.528Z,101768.11
2017-12-03T19:17:39.065Z,101769.53
2017-12-03T19:20:06.781Z,101761.16
2017-12-03T19:22:34.321Z,101768.78
2017-12-03T19:25:01.926Z,101769.27
2017-12-03T19:27:29.606Z,101772.36
2017-12-03T19:29:57.132Z,101769.08
2017-12-03T19:32:24.686Z,101770.22
2017-12-03T19:34:52.623Z,101777.58
2017-12-03T19:37:20.163Z,101767.78
2017-12-03T19:39:47.688Z,101774.95
2017-12-03T19:42:15.288Z,101775.50
2017-12-03T19:44:42.851Z,101775.21
2017-12-03T19:47:10.583Z,101765.22
2017-12-03T19:49:38.252Z,101768.39
2017-12-03T19:52:05.779Z,101772.90
2017-12-03T19:54:33.371Z,101779.02
2017-12-03T19:57:00.929Z,101780.09
2017-12-03T19:59:28.659Z,101778.56
2017-12-03T20:01:56.189Z,101788.94
2017-12-03T20:04:23.713Z,101799.37
2017-12-03T20:06:51.322Z,101797.26
2017-12-03T20:09:18.840Z,101791.02
2017-12-03T20:11:46.374Z,101794.86
2017-12-03T20:14:13.944Z,101793.96
2017-12-03T20:16:41.474Z,101802.26
2017-12-03T20:19:09.056Z,101799.50
2017-12-03T20:21:36.647Z,101803.42
2017-12-03T20:24:04.291Z,101802.99
2017-12-03T20:26:31.852Z,101814.72
2017-12-03T20:28:59.441Z,101801.58
2017-12-03T20:31:27.008Z,101808.80
2017-12-03T20:33:54.557Z,101810.80
2017-12-03T20:36:22.177Z,101804.07
2017-12-03T20:38:49.718Z,101798.09
2017-12-03T20:41:17.276Z,101807.81
2017-12-03T20:43:44.860Z,101814.10
2017-12-03T20:46:12.411Z,101820.23
2017-12-03T20:48:40.141Z,101811.62
2017-12-03T20:51:07.709Z,101810.64
2017-12-03T20:53:35.252Z,101809.25
2017-12-03T20:56:02.962Z,101805.56
2017-12-03T20:58:30.552Z,101807.53
2017-12-03T21:00:58.086Z,101812.56
2017-12-03T21:03:25.663Z,101814.62
2017-12-03T21:05:53.185Z,101815.02
2017-12-03T21:08:20.729Z,101813.50
2017-12-03T21:10:48.272Z,101815.42
2017-12-03T21:13:15.963Z,101819.78
2017-12-03T21:15:43.484Z,101828.30
2017-12-03T21:18:11.020Z,101824.92
2017-12-03T21:20:38.599Z,101826.03
2017-12-03T21:23:06.112Z,101829.17
2017-12-03T21:25:33.628Z,101822.50
2017-12-03T21:28:01.245Z,101821.38
2017-12-03T21:30:28.777Z,101821.71
2017-12-03T21:32:56.318Z,101819.16
2017-12-03T21:35:24.024Z,101812.33
2017-12-03T21:37:51.539Z,101813.61
2017-12-03T21:40:19.075Z,101823.58
2017-12-03T21:42:46.645Z,101813.09
2017-12-03T21:45:14.177Z,101817.55
2017-12-03T21:47:41.704Z,101814.60
2017-12-03T21:50:09.248Z,101821.79
2017-12-03T21:52:36.772Z,101831.32
2017-12-03T21:55:04.429Z,101830.69
2017-12-03T21:57:31.948Z,101828.23
2017-12-03T21:59:59.465Z,101828.62
2017-12-03T22:02:27.130Z,101827.45
2017-12-03T22:04:54.647Z,101830.09
2017-12-03T22:07:22.179Z,101834.86
2017-12-03T22:09:49.765Z,101838.55
2017-12-03T22:12:17.284Z,101833.50
2017-12-03T22:14:44.809Z,101841.90
2017-12-03T22:17:12.372Z,101849.97
2017-12-03T22:19:39.904Z,101842.61
2017-12-03T22:22:07.424Z,101847.82
2017-12-03T22:24:35.085Z,101845.11
2017-12-03T22:27:02.605Z,101849.45
2017-12-03T22:29:30.126Z,101846.11
2017-12-03T22:31:57.692Z,101853.17
2017-12-03T22:34:25.204Z,101863.64
2017-12-03T22:36:52.728Z,101860.55
2017-12-03T22:39:20.293Z,101870.06
2017-12-03T22:41:47.812Z,101866.81
2017-12-03T22:44:15.333Z,101867.59
2017-12-03T22:46:42.895Z,101868.13
2017-12-03T22:49:10.404Z,101878.36
2017-12-03T22:51:37.920Z,101885.70
2017-12-03T22:54:05.488Z,101885.98
2017-12-03T22:56:33.013Z,101885.19
2017-12-03T22:59:00.537Z,101886.48
2017-12-03T23:01:28.113Z,101887.94
2017-12-03T23:03:55.619Z,101887.72
2017-12-03T23:06:23.142Z,101897.09
2017-12-03T23:08:50.819Z,101891.30
2017-12-03T23:11:18.352Z,101886.78
2017-12-03T23:13:45.878Z,101883.66
2017-12-03T23:16:13.458Z,101893.00
2017-12-03T23:18:40.979Z,101886.01
2017-12-03T23:21:08.496Z,101896.98
2017-12-03T23:23:36.086Z,101899.33
2017-12-03T23:26:03.656Z,101887.98
2017-12-03T23:28:31.339Z,101894.33
2017-12-03T23:30:59.030Z,101893.89
2017-12-03T23:33:26.589Z,101895.33
2017-12-03T23:35:54.133Z,101902.80
2017-12-03T23:38:21.920Z,101899.66
2017-12-03T23:40:49.440Z,101892.30
2017-12-03T23:43:16.980Z,101883.09
2017-12-03T23:45:44.568Z,101890.84
2017-12-03T23:48:12.123Z,101891.90
2017-12-03T23:50:39.657Z,101884.33
2017-12-03T23:53:07.233Z,101885.41
2017-12-03T23:55:34.773Z,101872.75
2017-12-03T23:58:02.301Z,101884.44
